Time;durP1;ratioP1;P1;durP2;ratioP2;P2;SDS_P1;SDS_P2;PMS_P1;PMS_P2;Temp;Humidity;BMP_temperature;BMP_pressure;BME280_temperature;BME280_humidity;BME280_pressure;Samples;Min_cycle;Max_cycle;Signal;HPM_P1;HPM_P2
2023/03/20 00:01:27;;;;;;;3.58;1.90;;;7.50;95.40;;;;;;5056677;28;20057;-66
2023/03/20 00:03:53;;;;;;;4.20;2.10;;;7.40;95.60;;;;;;5047662;28;20074;-66
2023/03/20 00:06:21;;;;;;;3.65;1.80;;;7.40;95.70;;;;;;5052237;28;20103;-66
2023/03/20 00:08:51;;;;;;;4.68;2.25;;;7.40;95.10;;;;;;5070841;28;20025;-66
2023/03/20 00:11:29;;;;;;;4.45;2.10;;;7.40;95.40;;;;;;5056690;28;20112;-66
2023/03/20 00:14:13;;;;;;;4.55;2.10;;;7.40;95.30;;;;;;5055602;28;20029;-66
2023/03/20 00:16:45;;;;;;;3.05;1.65;;;7.40;95.50;;;;;;5056587;28;20052;-66
2023/03/20 00:19:30;;;;;;;3.42;1.73;;;7.40;95.50;;;;;;5067427;28;20430;-66
2023/03/20 00:21:56;;;;;;;2.95;1.52;;;7.40;95.30;;;;;;5055736;28;20120;-66
2023/03/20 00:24:23;;;;;;;3.92;1.77;;;7.40;95.60;;;;;;5064384;28;20078;-66
2023/03/20 00:26:50;;;;;;;3.03;1.70;;;7.40;95.20;;;;;;5070669;28;20103;-66
2023/03/20 00:29:29;;;;;;;4.78;1.90;;;7.40;95.20;;;;;;5058299;28;20029;-66
2023/03/20 00:31:56;;;;;;;4.40;1.70;;;7.40;94.70;;;;;;5045965;28;20119;-66
2023/03/20 00:34:26;;;;;;;3.50;1.70;;;7.40;94.90;;;;;;5054768;28;20116;-66
2023/03/20 00:36:52;;;;;;;3.78;1.75;;;7.40;94.60;;;;;;5052582;28;20021;-66
2023/03/20 00:39:18;;;;;;;2.88;1.38;;;7.40;94.50;;;;;;5060392;28;20108;-66
2023/03/20 00:42:06;;;;;;;3.05;1.48;;;7.40;95.30;;;;;;5067949;28;20115;-66
2023/03/20 00:44:39;;;;;;;2.47;1.30;;;7.40;94.90;;;;;;5074475;28;20040;-66
2023/03/20 00:47:25;;;;;;;3.63;1.50;;;7.50;95.70;;;;;;5056546;28;20087;-66
2023/03/20 00:49:53;;;;;;;3.67;1.40;;;7.40;95.60;;;;;;5067657;28;20063;-66
2023/03/20 00:52:20;;;;;;;4.90;1.50;;;7.40;95.40;;;;;;5064253;28;20025;-65
2023/03/20 00:54:46;;;;;;;3.42;1.45;;;7.40;95.40;;;;;;5052023;28;20029;-65
2023/03/20 00:57:19;;;;;;;2.80;1.40;;;7.30;95.00;;;;;;5052906;28;20036;-65
2023/03/20 00:59:57;;;;;;;3.25;1.58;;;7.20;94.50;;;;;;5068338;28;20036;-65
2023/03/20 01:02:27;;;;;;;2.65;1.50;;;7.10;93.60;;;;;;5062132;28;20434;-67
2023/03/20 01:04:53;;;;;;;3.10;1.67;;;7.00;93.20;;;;;;5055458;28;20025;-67
2023/03/20 01:07:21;;;;;;;3.05;1.58;;;6.90;93.20;;;;;;5053751;28;20033;-67
2023/03/20 01:09:46;;;;;;;3.55;1.80;;;6.80;92.40;;;;;;5053845;28;20108;-66
2023/03/20 01:12:13;;;;;;;3.20;1.50;;;6.60;91.40;;;;;;5041631;28;20863;-67
2023/03/20 01:14:39;;;;;;;3.28;1.67;;;6.50;91.00;;;;;;5069538;28;20059;-67
2023/03/20 01:17:08;;;;;;;3.00;1.73;;;6.40;90.30;;;;;;5069377;28;20056;-66
2023/03/20 01:19:35;;;;;;;3.22;1.67;;;6.30;88.90;;;;;;5067371;28;20021;-66
2023/03/20 01:22:01;;;;;;;3.40;1.80;;;6.30;87.50;;;;;;5055666;28;20544;-66
2023/03/20 01:24:27;;;;;;;3.00;1.65;;;6.40;87.10;;;;;;5074413;28;20064;-66
2023/03/20 01:26:53;;;;;;;2.80;1.63;;;6.40;87.50;;;;;;5074365;28;20101;-66
2023/03/20 01:29:26;;;;;;;3.70;1.88;;;6.50;87.40;;;;;;5064948;28;20017;-66
2023/03/20 01:31:52;;;;;;;4.25;1.70;;;6.50;87.70;;;;;;5058196;28;20135;-66
2023/03/20 01:34:18;;;;;;;2.90;1.50;;;6.50;87.60;;;;;;5069797;28;20032;-66
2023/03/20 01:36:56;;;;;;;3.92;1.45;;;6.60;88.20;;;;;;5074022;28;20024;-67
2023/03/20 01:39:33;;;;;;;2.97;1.52;;;6.60;88.20;;;;;;5064500;28;20032;-66
2023/03/20 01:42:00;;;;;;;3.22;1.58;;;6.50;88.30;;;;;;5038570;28;20016;-66
2023/03/20 01:44:29;;;;;;;2.33;1.30;;;6.50;86.90;;;;;;5056928;28;20111;-66
2023/03/20 01:46:55;;;;;;;3.20;1.45;;;6.50;86.10;;;;;;5042847;28;20025;-66
2023/03/20 01:49:21;;;;;;;2.20;1.30;;;6.50;86.30;;;;;;5070769;28;20024;-66
2023/03/20 01:51:48;;;;;;;1.95;1.10;;;6.60;86.40;;;;;;5059381;28;20028;-66
2023/03/20 01:54:16;;;;;;;2.40;1.20;;;6.60;86.60;;;;;;5044487;28;20506;-66
2023/03/20 01:56:59;;;;;;;2.13;1.00;;;6.80;88.90;;;;;;5079514;28;20029;-66
2023/03/20 01:59:32;;;;;;;1.90;1.00;;;6.80;89.70;;;;;;5078284;28;20025;-66
2023/03/20 02:01:58;;;;;;;2.40;1.15;;;6.90;91.00;;;;;;5066156;28;20045;-66
2023/03/20 02:04:33;;;;;;;2.00;1.17;;;6.80;90.80;;;;;;5061929;28;20025;-66
2023/03/20 02:06:59;;;;;;;2.67;0.90;;;6.70;89.80;;;;;;5039803;28;20436;-66
2023/03/20 02:09:26;;;;;;;2.45;1.30;;;6.70;90.30;;;;;;5065609;28;20033;-66
2023/03/20 02:11:53;;;;;;;3.78;1.30;;;6.70;90.00;;;;;;5075574;28;20060;-67
2023/03/20 02:14:19;;;;;;;4.55;1.40;;;6.70;89.30;;;;;;5067718;28;20024;-66
2023/03/20 02:16:46;;;;;;;2.10;1.25;;;6.70;89.40;;;;;;5058076;28;20063;-66
2023/03/20 02:19:30;;;;;;;2.20;1.10;;;6.70;90.00;;;;;;5057820;28;20306;-66
2023/03/20 02:22:25;;;;;;;;;;;6.80;89.90;;;;;;5059377;28;20024;-66
2023/03/20 02:25:39;;;;;;;2.27;1.30;;;6.80;90.30;;;;;;5045678;28;20289;-66
2023/03/20 02:28:23;;;;;;;2.28;1.30;;;6.90;90.40;;;;;;4976772;28;20277;-66
2023/03/20 02:31:07;;;;;;;3.33;1.63;;;7.00;90.90;;;;;;4978000;28;20043;-66
2023/03/20 02:33:49;;;;;;;2.13;1.20;;;7.00;91.00;;;;;;5021391;28;20044;-66
2023/03/20 02:36:54;;;;;;;4.22;1.50;;;7.00;90.60;;;;;;5039339;28;20025;-66
2023/03/20 02:39:44;;;;;;;2.63;1.50;;;7.00;90.70;;;;;;5007889;28;20037;-66
2023/03/20 02:42:21;;;;;;;3.60;1.77;;;7.10;91.00;;;;;;5059447;28;20303;-66
2023/03/20 02:44:47;;;;;;;2.20;1.30;;;7.10;90.70;;;;;;5056943;28;20071;-66
2023/03/20 02:47:31;;;;;;;2.47;1.45;;;7.10;89.90;;;;;;5036847;28;20421;-66
2023/03/20 02:50:24;;;;;;;;;;;7.10;89.60;;;;;;5069760;28;20039;-66
2023/03/20 02:53:08;;;;;;;3.63;1.95;;;7.10;89.60;;;;;;5050059;28;20217;-66
2023/03/20 02:55:36;;;;;;;3.38;1.75;;;7.10;90.00;;;;;;5056715;28;20349;-66
2023/03/20 02:58:10;;;;;;;2.75;1.40;;;7.10;89.50;;;;;;5055466;28;20028;-66
2023/03/20 03:00:44;;;;;;;3.00;1.50;;;7.10;89.20;;;;;;5053830;28;20298;-66
2023/03/20 03:03:27;;;;;;;2.72;1.60;;;7.10;89.20;;;;;;5052722;28;20024;-66
2023/03/20 03:06:19;;;;;;;2.80;1.45;;;7.10;89.80;;;;;;5061266;28;20321;-66
2023/03/20 03:08:51;;;;;;;3.78;1.60;;;7.10;90.10;;;;;;5068079;28;20025;-66
2023/03/20 03:11:17;;;;;;;3.53;1.75;;;7.10;89.70;;;;;;5062931;28;20310;-66
2023/03/20 03:13:53;;;;;;;3.20;1.52;;;7.10;89.60;;;;;;5063753;28;20036;-66
2023/03/20 03:16:34;;;;;;;3.45;1.60;;;7.20;89.60;;;;;;5064936;28;20029;-65
2023/03/20 03:19:08;;;;;;;3.30;1.60;;;7.20;90.70;;;;;;5062095;28;20024;-66
2023/03/20 03:21:35;;;;;;;4.40;1.70;;;7.30;90.80;;;;;;5066564;28;20483;-66
2023/03/20 03:24:02;;;;;;;4.22;1.85;;;7.30;91.30;;;;;;5058059;28;20057;-66
2023/03/20 03:26:33;;;;;;;3.53;1.70;;;7.30;91.60;;;;;;5058170;28;20017;-66
2023/03/20 03:29:02;;;;;;;2.75;1.60;;;7.20;91.50;;;;;;5071049;28;20027;-66
2023/03/20 03:31:30;;;;;;;3.67;1.88;;;7.20;91.40;;;;;;5055247;28;20159;-66
2023/03/20 03:33:59;;;;;;;2.92;1.60;;;7.20;91.10;;;;;;5062029;28;20025;-66
2023/03/20 03:36:51;;;;;;;3.95;2.00;;;7.10;90.80;;;;;;5062709;28;20032;-66
2023/03/20 03:39:45;;;;;;;4.07;2.17;;;7.20;90.40;;;;;;5041518;28;20041;-66
2023/03/20 03:42:16;;;;;;;4.50;2.50;;;7.20;91.70;;;;;;5048265;28;20067;-66
2023/03/20 03:44:58;;;;;;;4.07;2.47;;;7.20;92.20;;;;;;5065182;28;20318;-66
2023/03/20 03:47:31;;;;;;;3.55;2.08;;;7.20;92.10;;;;;;5070911;28;20021;-65
2023/03/20 03:50:22;;;;;;;4.50;2.70;;;7.10;91.80;;;;;;5076278;28;20028;-65
2023/03/20 03:52:51;;;;;;;4.32;2.40;;;7.10;91.70;;;;;;5060807;28;20106;-65
2023/03/20 03:55:50;;;;;;;4.53;2.70;;;7.10;91.70;;;;;;5075838;28;20310;-65
2023/03/20 03:58:26;;;;;;;4.22;2.45;;;7.10;91.90;;;;;;5060628;28;20117;-67
2023/03/20 04:00:58;;;;;;;3.97;2.30;;;7.10;91.80;;;;;;5048815;28;20037;-66
2023/03/20 04:03:29;;;;;;;4.65;2.35;;;7.10;92.20;;;;;;5054004;28;20428;-67
2023/03/20 04:05:57;;;;;;;5.35;2.53;;;7.10;93.80;;;;;;5073340;28;20036;-66
2023/03/20 04:08:23;;;;;;;4.68;2.20;;;7.00;93.60;;;;;;5071331;28;20028;-66
2023/03/20 04:10:48;;;;;;;4.28;2.45;;;7.00;94.30;;;;;;5072932;28;20028;-66
2023/03/20 04:13:15;;;;;;;4.28;2.50;;;7.00;94.00;;;;;;5070705;28;20032;-66
2023/03/20 04:15:41;;;;;;;3.75;2.45;;;7.00;94.00;;;;;;5069963;28;20314;-66
2023/03/20 04:18:08;;;;;;;4.55;2.40;;;7.00;93.90;;;;;;5047196;28;20036;-66
2023/03/20 04:20:33;;;;;;;4.30;2.38;;;7.00;93.30;;;;;;5054273;28;20077;-65
2023/03/20 04:23:00;;;;;;;3.92;2.38;;;7.00;93.70;;;;;;5067547;28;20029;-66
2023/03/20 04:25:26;;;;;;;3.72;2.20;;;6.90;93.30;;;;;;5068838;28;20021;-64
2023/03/20 04:27:52;;;;;;;3.58;2.03;;;6.90;92.50;;;;;;5063501;28;20413;-66
2023/03/20 04:30:18;;;;;;;3.97;2.35;;;7.00;92.80;;;;;;5064755;28;20306;-64
2023/03/20 04:32:44;;;;;;;3.58;2.00;;;7.00;93.00;;;;;;5056113;28;20031;-66
2023/03/20 04:35:09;;;;;;;3.58;1.75;;;7.00;93.60;;;;;;5053461;28;20021;-66
2023/03/20 04:37:35;;;;;;;5.70;2.17;;;7.00;93.80;;;;;;5045411;28;20078;-65
2023/03/20 04:40:01;;;;;;;4.10;2.70;;;7.00;94.20;;;;;;5044559;28;20049;-66
2023/03/20 04:42:28;;;;;;;3.20;1.80;;;6.90;95.20;;;;;;5050784;28;20029;-65
2023/03/20 04:44:54;;;;;;;4.43;1.88;;;6.90;95.80;;;;;;5038646;28;20036;-65
2023/03/20 04:47:20;;;;;;;3.17;1.88;;;6.90;95.80;;;;;;5054194;28;20418;-65
2023/03/20 04:49:45;;;;;;;4.13;1.98;;;6.90;96.60;;;;;;5054112;28;20020;-66
2023/03/20 04:52:11;;;;;;;2.90;1.40;;;6.90;96.00;;;;;;5052179;28;20040;-65
2023/03/20 04:54:36;;;;;;;2.10;1.27;;;6.90;97.40;;;;;;5051649;28;20025;-66
2023/03/20 04:57:02;;;;;;;2.65;1.30;;;7.00;97.70;;;;;;5052105;28;20448;-66
2023/03/20 04:59:28;;;;;;;2.90;1.42;;;7.00;97.90;;;;;;5053369;28;20100;-66
2023/03/20 05:01:53;;;;;;;2.88;1.20;;;7.00;98.00;;;;;;5048980;28;20049;-66
2023/03/20 05:04:19;;;;;;;2.42;1.30;;;7.00;98.00;;;;;;5054215;28;20440;-65
2023/03/20 05:06:47;;;;;;;3.03;1.60;;;7.00;98.00;;;;;;5047736;28;20132;-66
2023/03/20 05:09:14;;;;;;;2.45;1.30;;;7.00;98.00;;;;;;5051718;28;20028;-67
2023/03/20 05:11:40;;;;;;;3.25;1.58;;;7.10;98.00;;;;;;5053560;28;20055;-66
2023/03/20 05:14:06;;;;;;;4.95;2.30;;;7.10;98.00;;;;;;5054925;28;20056;-66
2023/03/20 05:16:32;;;;;;;5.10;2.35;;;7.10;98.00;;;;;;5055893;28;20025;-66
2023/03/20 05:18:57;;;;;;;6.25;2.85;;;7.20;98.00;;;;;;5055907;28;20036;-66
2023/03/20 05:21:23;;;;;;;3.83;1.70;;;7.10;98.00;;;;;;5055718;28;20029;-66
2023/03/20 05:23:48;;;;;;;3.50;2.25;;;7.10;98.00;;;;;;5036243;28;20017;-67
2023/03/20 05:26:14;;;;;;;5.20;3.10;;;7.10;97.50;;;;;;5054872;28;20103;-66
2023/03/20 05:28:40;;;;;;;4.55;2.30;;;7.10;97.00;;;;;;5054435;28;20039;-67
2023/03/20 05:31:06;;;;;;;5.35;2.17;;;7.10;97.20;;;;;;5054979;28;20048;-66
2023/03/20 05:33:31;;;;;;;2.67;1.60;;;7.00;96.90;;;;;;5055895;28;20029;-66
2023/03/20 05:35:57;;;;;;;4.18;1.73;;;7.00;96.90;;;;;;5055593;28;20032;-66
2023/03/20 05:38:22;;;;;;;5.07;1.90;;;7.10;96.80;;;;;;5054258;28;20051;-66
2023/03/20 05:40:48;;;;;;;3.05;1.75;;;7.10;96.60;;;;;;5055163;28;20029;-66
2023/03/20 05:43:14;;;;;;;3.70;2.00;;;7.10;96.80;;;;;;5044643;28;20029;-66
2023/03/20 05:45:41;;;;;;;2.50;1.40;;;7.10;96.50;;;;;;5035748;28;20026;-66
2023/03/20 05:48:06;;;;;;;2.60;1.45;;;7.10;97.20;;;;;;5035734;28;20099;-66
2023/03/20 05:50:32;;;;;;;3.17;1.50;;;7.20;98.00;;;;;;5035663;28;20060;-66
2023/03/20 05:52:58;;;;;;;3.92;1.90;;;7.20;98.00;;;;;;5048338;28;20029;-66
2023/03/20 05:55:23;;;;;;;3.75;1.60;;;7.20;97.40;;;;;;5049806;28;20100;-66
2023/03/20 05:57:51;;;;;;;4.15;1.40;;;7.20;97.10;;;;;;5036461;28;20120;-66
2023/03/20 06:00:17;;;;;;;2.15;1.20;;;7.20;97.40;;;;;;5038522;28;20040;-66
2023/03/20 06:02:42;;;;;;;3.05;1.55;;;7.30;97.80;;;;;;5039385;28;20045;-66
2023/03/20 06:05:08;;;;;;;3.22;1.75;;;7.40;98.00;;;;;;5053431;28;20083;-67
2023/03/20 06:07:34;;;;;;;3.40;1.60;;;7.40;98.00;;;;;;5053551;28;20131;-66
2023/03/20 06:09:59;;;;;;;4.03;2.17;;;7.40;98.00;;;;;;5055370;28;20039;-66
2023/03/20 06:12:25;;;;;;;4.45;2.20;;;7.40;97.90;;;;;;5053854;28;20048;-66
2023/03/20 06:14:50;;;;;;;3.13;1.80;;;7.40;98.00;;;;;;5055646;28;20018;-66
2023/03/20 06:17:16;;;;;;;4.07;1.98;;;7.40;97.80;;;;;;5055048;28;20017;-66
2023/03/20 06:19:41;;;;;;;4.28;2.13;;;7.40;97.60;;;;;;5049835;28;20025;-67
2023/03/20 06:22:07;;;;;;;6.05;3.00;;;7.40;97.50;;;;;;5050928;28;20041;-66
2023/03/20 06:24:34;;;;;;;7.70;3.53;;;7.40;97.70;;;;;;5042165;28;20013;-66
2023/03/20 06:26:59;;;;;;;6.57;2.80;;;7.40;97.30;;;;;;5054197;28;20020;-66
2023/03/20 06:29:25;;;;;;;5.50;2.80;;;7.30;96.80;;;;;;5055077;28;20021;-67
2023/03/20 06:31:50;;;;;;;4.32;2.20;;;7.40;96.80;;;;;;5055064;28;20311;-66
2023/03/20 06:34:16;;;;;;;5.07;2.47;;;7.40;97.10;;;;;;5037559;28;20036;-67
2023/03/20 06:36:42;;;;;;;4.68;2.95;;;7.40;96.60;;;;;;5039686;28;20033;-66
2023/03/20 06:39:07;;;;;;;4.75;2.58;;;7.50;96.60;;;;;;5046979;28;20021;-66
2023/03/20 06:41:33;;;;;;;6.07;3.10;;;7.50;96.50;;;;;;5056793;28;20032;-66
2023/03/20 06:43:59;;;;;;;6.15;3.10;;;7.50;96.50;;;;;;5046027;28;20148;-66
2023/03/20 06:46:25;;;;;;;6.68;2.85;;;7.50;97.20;;;;;;5055019;28;20032;-66
2023/03/20 06:48:51;;;;;;;5.47;3.05;;;7.50;97.00;;;;;;5058268;28;20025;-65
2023/03/20 06:51:16;;;;;;;4.40;2.65;;;7.50;96.40;;;;;;5058485;28;20025;-66
2023/03/20 06:53:43;;;;;;;5.63;2.85;;;7.40;96.10;;;;;;5050206;28;20033;-67
2023/03/20 06:56:11;;;;;;;4.47;2.58;;;7.30;95.60;;;;;;5053361;28;20044;-67
2023/03/20 06:58:37;;;;;;;4.07;2.45;;;7.30;95.40;;;;;;5042981;28;20422;-68
2023/03/20 07:01:15;;;;;;;4.07;2.10;;;7.50;94.80;;;;;;5040626;28;20385;-67
2023/03/20 07:03:41;;;;;;;4.05;2.17;;;7.70;98.00;;;;;;5037563;28;20101;-67
2023/03/20 07:06:07;;;;;;;3.80;2.13;;;7.80;98.00;;;;;;5037523;28;20096;-67
2023/03/20 07:08:33;;;;;;;3.35;1.70;;;7.90;98.00;;;;;;5037666;28;20403;-66
2023/03/20 07:11:00;;;;;;;3.45;1.60;;;8.00;98.00;;;;;;5036604;28;20103;-67
2023/03/20 07:13:27;;;;;;;3.08;1.50;;;8.20;98.00;;;;;;5036251;28;20030;-67
2023/03/20 07:15:53;;;;;;;3.95;1.50;;;8.30;98.00;;;;;;5036414;28;20088;-67
2023/03/20 07:18:19;;;;;;;2.65;1.20;;;8.50;98.00;;;;;;5041064;28;20032;-67
2023/03/20 07:20:44;;;;;;;5.78;1.50;;;8.50;98.00;;;;;;5050317;28;20021;-66
2023/03/20 07:23:10;;;;;;;3.92;2.17;;;8.60;98.00;;;;;;5047381;28;20024;-66
2023/03/20 07:25:36;;;;;;;2.63;1.20;;;8.80;98.00;;;;;;5060363;28;20464;-67
2023/03/20 07:28:01;;;;;;;3.53;1.60;;;8.90;98.00;;;;;;5055669;28;20033;-68
2023/03/20 07:30:27;;;;;;;4.63;1.50;;;9.00;98.00;;;;;;5057658;28;20028;-65
2023/03/20 07:32:52;;;;;;;3.60;1.45;;;9.10;97.90;;;;;;5057212;28;20029;-67
2023/03/20 07:35:19;;;;;;;3.65;1.70;;;9.10;97.50;;;;;;5056514;28;20083;-67
2023/03/20 07:37:44;;;;;;;5.75;1.70;;;9.10;97.80;;;;;;5037319;28;20033;-67
2023/03/20 07:40:11;;;;;;;4.93;2.17;;;9.30;98.00;;;;;;5039923;28;20025;-67
2023/03/20 07:42:36;;;;;;;5.28;2.30;;;9.30;97.80;;;;;;5036512;28;20037;-66
2023/03/20 07:45:02;;;;;;;4.72;2.40;;;9.00;97.70;;;;;;5037790;28;20025;-67
2023/03/20 07:47:28;;;;;;;4.50;2.42;;;8.50;98.00;;;;;;5036622;28;20483;-67
2023/03/20 07:49:53;;;;;;;5.18;2.70;;;8.30;98.00;;;;;;5037188;28;20443;-67
2023/03/20 07:52:19;;;;;;;4.82;2.50;;;8.20;98.00;;;;;;5042291;28;20065;-66
2023/03/20 07:54:44;;;;;;;5.78;2.47;;;8.20;98.00;;;;;;5057390;28;20429;-66
2023/03/20 07:57:10;;;;;;;4.53;2.53;;;8.20;98.00;;;;;;5056328;28;20410;-66
2023/03/20 07:59:35;;;;;;;4.45;2.42;;;8.40;98.00;;;;;;5057274;28;20100;-66
2023/03/20 08:02:01;;;;;;;4.90;2.85;;;8.40;98.00;;;;;;5056904;28;20056;-67
2023/03/20 08:04:26;;;;;;;6.03;3.70;;;8.40;98.00;;;;;;5043818;28;20026;-66
2023/03/20 08:06:52;;;;;;;15.85;7.57;;;8.30;98.00;;;;;;5037279;28;20021;-66
2023/03/20 08:09:18;;;;;;;6.57;3.08;;;8.40;98.00;;;;;;5056028;28;20036;-66
2023/03/20 08:11:44;;;;;;;5.53;2.78;;;8.40;98.00;;;;;;5056581;28;20043;-67
2023/03/20 08:14:09;;;;;;;14.95;8.38;;;8.40;98.00;;;;;;5037552;28;20373;-67
2023/03/20 08:16:35;;;;;;;28.33;17.17;;;8.50;98.00;;;;;;5056926;28;20033;-67
2023/03/20 08:19:02;;;;;;;34.70;19.95;;;8.50;98.00;;;;;;5056816;28;20104;-67
2023/03/20 08:21:29;;;;;;;7.88;4.32;;;8.60;98.00;;;;;;5056864;28;20456;-67
2023/03/20 08:23:54;;;;;;;12.35;7.65;;;8.60;98.00;;;;;;5057011;28;20029;-66
2023/03/20 08:26:21;;;;;;;10.25;5.38;;;8.70;98.00;;;;;;5056814;28;20462;-68
2023/03/20 08:28:46;;;;;;;7.82;4.10;;;8.70;98.00;;;;;;5054986;28;20079;-67
2023/03/20 08:31:12;;;;;;;6.47;2.88;;;8.70;98.00;;;;;;5055674;28;20092;-67
2023/03/20 08:33:37;;;;;;;5.47;2.90;;;8.90;98.00;;;;;;5056136;28;20021;-67
2023/03/20 08:36:03;;;;;;;4.85;2.63;;;8.90;98.00;;;;;;5056706;28;20036;-67
2023/03/20 08:38:29;;;;;;;6.30;3.38;;;8.90;97.90;;;;;;5056667;28;20103;-67
2023/03/20 08:40:55;;;;;;;5.93;2.80;;;9.10;97.90;;;;;;5056426;28;20024;-67
2023/03/20 08:43:20;;;;;;;6.55;2.97;;;9.20;97.60;;;;;;5055291;28;20028;-68
2023/03/20 08:45:46;;;;;;;5.00;2.65;;;9.30;97.80;;;;;;5054695;28;20040;-66
2023/03/20 08:48:15;;;;;;;5.03;2.20;;;9.30;97.10;;;;;;5056157;28;20322;-67
2023/03/20 08:50:41;;;;;;;4.72;2.63;;;9.40;97.00;;;;;;5056128;28;20025;-66
2023/03/20 08:53:06;;;;;;;5.32;2.75;;;9.40;96.60;;;;;;5056257;28;20028;-67
2023/03/20 08:55:32;;;;;;;5.53;3.45;;;9.20;96.80;;;;;;5056245;28;20418;-66
2023/03/20 08:58:01;;;;;;;4.45;2.38;;;9.20;97.20;;;;;;5055065;28;20055;-66
2023/03/20 09:00:27;;;;;;;4.53;2.58;;;9.30;97.50;;;;;;5054180;28;20037;-66
2023/03/20 09:02:52;;;;;;;4.55;2.55;;;9.20;96.70;;;;;;5056015;28;20060;-66
2023/03/20 09:05:18;;;;;;;4.97;2.50;;;9.10;97.30;;;;;;5056365;28;20292;-66
2023/03/20 09:07:43;;;;;;;6.82;2.65;;;9.10;97.70;;;;;;5055878;28;20056;-66
2023/03/20 09:10:10;;;;;;;5.78;2.80;;;9.20;97.30;;;;;;5056248;28;20021;-66
2023/03/20 09:12:36;;;;;;;4.30;2.53;;;9.20;97.40;;;;;;5054956;28;20096;-66
2023/03/20 09:15:02;;;;;;;4.25;2.42;;;9.30;97.10;;;;;;5054788;28;20419;-66
2023/03/20 09:17:28;;;;;;;4.13;2.30;;;9.50;97.00;;;;;;5056126;28;20029;-66
2023/03/20 09:19:53;;;;;;;5.30;2.50;;;9.70;96.40;;;;;;5055711;28;20074;-67
2023/03/20 09:22:19;;;;;;;4.80;2.75;;;9.70;96.20;;;;;;5055683;28;20048;-67
2023/03/20 09:24:48;;;;;;;5.97;3.30;;;9.80;96.40;;;;;;5041737;28;20056;-66
2023/03/20 09:27:14;;;;;;;4.88;2.50;;;9.90;95.60;;;;;;5034768;28;20044;-66
2023/03/20 09:29:42;;;;;;;4.43;2.47;;;10.10;95.20;;;;;;5035655;28;20033;-66
2023/03/20 09:32:12;;;;;;;6.00;3.00;;;10.30;95.00;;;;;;5018581;28;20561;-66
2023/03/20 09:34:38;;;;;;;7.25;3.40;;;10.50;94.20;;;;;;5035939;28;20082;-66
2023/03/20 09:37:05;;;;;;;5.63;2.83;;;10.60;93.90;;;;;;5035859;28;20108;-66
2023/03/20 09:39:31;;;;;;;7.20;3.63;;;10.80;93.50;;;;;;5049910;28;20521;-66
2023/03/20 09:42:04;;;;;;;4.28;2.25;;;10.90;93.40;;;;;;5050303;28;20116;-65
2023/03/20 09:45:11;;;;;;;4.05;2.10;;;11.00;92.20;;;;;;5035859;28;20026;-65
2023/03/20 09:47:42;;;;;;;3.33;1.80;;;10.70;91.90;;;;;;4974773;28;20484;-66
2023/03/20 09:50:12;;;;;;;3.45;1.90;;;10.80;92.20;;;;;;4976347;28;20034;-66
2023/03/20 09:52:51;;;;;;;3.40;1.70;;;10.90;91.30;;;;;;5026329;28;20040;-67
2023/03/20 09:55:22;;;;;;;5.25;1.85;;;11.00;91.00;;;;;;5055401;28;20066;-66
2023/03/20 09:57:58;;;;;;;4.20;2.10;;;11.30;90.80;;;;;;5042597;28;20036;-65
2023/03/20 10:00:27;;;;;;;4.07;1.73;;;11.40;90.50;;;;;;5035668;28;20441;-65
2023/03/20 10:02:58;;;;;;;4.15;1.90;;;11.20;88.20;;;;;;5035504;28;20539;-67
2023/03/20 10:05:30;;;;;;;4.03;1.75;;;11.20;89.80;;;;;;5035589;28;20414;-66
2023/03/20 10:08:02;;;;;;;2.67;1.15;;;11.90;87.00;;;;;;5027766;28;20418;-65
2023/03/20 10:10:56;;;;;;;3.45;1.20;;;12.90;84.20;;;;;;5036928;28;20363;-65
2023/03/20 10:13:37;;;;;;;1.98;0.93;;;13.20;82.10;;;;;;5037183;28;20029;-65
2023/03/20 10:16:24;;;;;;;2.60;1.20;;;12.50;81.00;;;;;;5039268;28;20036;-66
2023/03/20 10:19:22;;;;;;;4.55;1.15;;;12.40;80.90;;;;;;5039126;28;20422;-65
2023/03/20 10:21:52;;;;;;;1.70;1.08;;;11.80;81.00;;;;;;5030530;28;20041;-66
2023/03/20 10:24:29;;;;;;;2.40;1.30;;;11.40;82.70;;;;;;5039233;28;20021;-65
2023/03/20 10:27:00;;;;;;;3.03;1.30;;;11.40;83.00;;;;;;5037058;28;20033;-66
2023/03/20 10:29:48;;;;;;;2.72;1.15;;;11.50;82.30;;;;;;5039277;28;20419;-65
2023/03/20 10:32:32;;;;;;;3.40;1.40;;;11.70;83.40;;;;;;5023699;28;20323;-65
2023/03/20 10:35:22;;;;;;;3.50;1.25;;;11.60;83.80;;;;;;5019334;28;20071;-66
2023/03/20 10:38:16;;;;;;;3.10;1.40;;;11.30;85.20;;;;;;5019127;28;20030;-66
2023/03/20 10:40:42;;;;;;;14.30;2.43;;;11.00;86.40;;;;;;5019101;28;20041;-66
2023/03/20 10:43:26;;;;;;;5.18;2.30;;;11.00;86.90;;;;;;5032331;28;20084;-66
2023/03/20 10:45:59;;;;;;;3.97;2.08;;;10.90;87.70;;;;;;5038966;28;20047;-65
2023/03/20 10:48:28;;;;;;;4.68;1.98;;;10.80;88.10;;;;;;5038775;28;20111;-66
2023/03/20 10:50:57;;;;;;;4.30;1.98;;;10.70;88.70;;;;;;5031695;28;20346;-66
2023/03/20 10:53:46;;;;;;;4.45;2.42;;;10.50;89.60;;;;;;5038588;28;20382;-66
2023/03/20 10:56:35;;;;;;;3.90;2.00;;;10.60;89.40;;;;;;5034845;28;20419;-66
2023/03/20 10:59:09;;;;;;;4.70;2.13;;;10.60;89.40;;;;;;5010268;28;20030;-66
2023/03/20 11:01:34;;;;;;;4.57;2.00;;;10.30;90.10;;;;;;5027605;28;20435;-65
2023/03/20 11:04:00;;;;;;;4.95;2.17;;;10.30;90.30;;;;;;5045254;28;20082;-66
2023/03/20 11:06:31;;;;;;;4.03;1.85;;;10.40;90.20;;;;;;5058099;28;20021;-66
2023/03/20 11:09:21;;;;;;;4.60;2.10;;;10.60;88.50;;;;;;5058382;28;20013;-66
2023/03/20 11:11:50;;;;;;;5.32;1.80;;;11.10;88.30;;;;;;5057042;28;20025;-65
2023/03/20 11:14:21;;;;;;;4.50;1.77;;;11.50;86.30;;;;;;5057328;28;20028;-65
2023/03/20 11:16:50;;;;;;;4.32;2.00;;;11.90;85.30;;;;;;5058116;28;20021;-66
2023/03/20 11:19:17;;;;;;;3.60;1.55;;;12.30;84.50;;;;;;5058227;28;20043;-65
2023/03/20 11:21:59;;;;;;;2.55;1.35;;;12.20;83.40;;;;;;5056777;28;20473;-65
2023/03/20 11:24:41;;;;;;;4.85;1.60;;;12.70;82.60;;;;;;5057877;28;20025;-66
2023/03/20 11:27:16;;;;;;;2.13;1.23;;;13.20;81.10;;;;;;5055647;28;20028;-65
2023/03/20 11:29:44;;;;;;;3.55;1.55;;;13.60;79.50;;;;;;5058001;28;20017;-66
2023/03/20 11:32:32;;;;;;;3.28;1.52;;;13.20;78.30;;;;;;5057890;28;20029;-66
2023/03/20 11:35:27;;;;;;;3.50;1.30;;;13.20;78.80;;;;;;5057408;28;20483;-66
2023/03/20 11:38:02;;;;;;;3.83;1.50;;;13.30;77.90;;;;;;5057663;28;20071;-66
2023/03/20 11:40:32;;;;;;;3.00;1.27;;;13.10;78.10;;;;;;5056083;28;20024;-65
2023/03/20 11:43:00;;;;;;;2.58;1.25;;;13.40;79.60;;;;;;5056413;28;20046;-65
2023/03/20 11:45:32;;;;;;;2.97;1.35;;;13.50;78.60;;;;;;5057664;28;20029;-65
2023/03/20 11:48:00;;;;;;;3.15;1.50;;;13.30;76.80;;;;;;5057602;28;20313;-65
2023/03/20 11:50:32;;;;;;;4.78;1.65;;;13.30;77.50;;;;;;5057300;28;20067;-65
2023/03/20 11:53:01;;;;;;;2.95;1.40;;;13.30;77.20;;;;;;5057604;28;20075;-66
2023/03/20 11:55:30;;;;;;;3.30;1.17;;;13.40;77.10;;;;;;5056248;28;20028;-65
2023/03/20 11:58:02;;;;;;;2.17;0.98;;;13.00;77.20;;;;;;5039984;28;20445;-65
2023/03/20 12:00:41;;;;;;;2.85;1.33;;;12.70;78.00;;;;;;5037500;28;22217;-65
2023/03/20 12:03:45;;;;;;;5.43;2.17;;;12.70;78.30;;;;;;5017679;28;20030;-65
2023/03/20 12:06:36;;;;;;;8.52;1.63;;;13.00;78.90;;;;;;5035338;28;20496;-65
2023/03/20 12:09:09;;;;;;;2.05;0.90;;;13.00;77.90;;;;;;5017773;28;20438;-65
2023/03/20 12:11:44;;;;;;;2.25;1.20;;;12.90;77.80;;;;;;5025537;28;20030;-65
2023/03/20 12:14:21;;;;;;;3.58;1.50;;;12.70;79.00;;;;;;5015851;28;20034;-65
2023/03/20 12:16:50;;;;;;;3.40;1.60;;;12.50;80.00;;;;;;5017359;28;20026;-65
2023/03/20 12:19:20;;;;;;;3.38;1.58;;;12.20;81.50;;;;;;5017204;28;20033;-65
2023/03/20 12:22:00;;;;;;;4.45;2.03;;;12.00;82.20;;;;;;5017185;28;20399;-65
2023/03/20 12:25:18;;;;;;;3.13;1.52;;;12.10;82.50;;;;;;5017238;28;20024;-65
2023/03/20 12:28:01;;;;;;;3.45;1.75;;;12.20;82.40;;;;;;5007194;28;20034;-66
2023/03/20 12:31:04;;;;;;;3.13;1.70;;;12.20;82.70;;;;;;5017374;28;20335;-63
2023/03/20 12:33:42;;;;;;;7.30;2.00;;;12.20;82.30;;;;;;5016843;28;20022;-63
2023/03/20 12:36:16;;;;;;;3.90;1.80;;;12.10;82.70;;;;;;5036353;28;20029;-63
2023/03/20 12:38:43;;;;;;;3.70;1.67;;;11.80;82.90;;;;;;5036708;28;20284;-63
2023/03/20 12:41:13;;;;;;;6.38;1.70;;;11.80;83.20;;;;;;5029532;28;20034;-66
2023/03/20 12:43:48;;;;;;;4.93;1.70;;;11.80;83.30;;;;;;5015777;28;20434;-65
2023/03/20 12:46:32;;;;;;;4.43;2.20;;;11.70;83.70;;;;;;5016948;28;20053;-65
2023/03/20 12:49:19;;;;;;;4.15;1.90;;;11.80;83.60;;;;;;5016809;28;20026;-65
2023/03/20 12:52:09;;;;;;;5.60;1.95;;;11.80;82.30;;;;;;5016577;28;20037;-64
2023/03/20 12:55:24;;;;;;;5.32;1.90;;;11.90;82.60;;;;;;5015459;28;20037;-64
2023/03/20 12:58:01;;;;;;;3.72;1.88;;;12.50;80.20;;;;;;5030499;28;20033;-64
2023/03/20 13:00:55;;;;;;;4.13;1.70;;;12.90;78.80;;;;;;5020401;28;20048;-64
2023/03/20 13:03:30;;;;;;;4.20;1.65;;;13.50;78.00;;;;;;5019746;28;20065;-64
2023/03/20 13:06:18;;;;;;;4.30;1.77;;;13.70;76.60;;;;;;5056189;28;20029;-64
2023/03/20 13:09:06;;;;;;;6.75;1.40;;;13.40;75.50;;;;;;5056104;28;20044;-66
2023/03/20 13:11:58;;;;;;;4.03;1.35;;;13.60;77.10;;;;;;5045597;28;20072;-65
2023/03/20 13:14:42;;;;;;;3.35;1.30;;;14.40;75.10;;;;;;5035992;28;20034;-64
2023/03/20 13:17:15;;;;;;;2.40;1.25;;;14.70;74.30;;;;;;5035958;28;20036;-64
2023/03/20 13:19:59;;;;;;;3.55;1.65;;;14.60;73.10;;;;;;5036064;28;20037;-64